createdAt,value
2023-08-12T00:00:12.768Z,7.37
2023-08-12T00:02:41.789Z,7.07
2023-08-12T00:05:12.171Z,6.63
2023-08-12T00:07:43.682Z,6.87
2023-08-12T00:10:13.683Z,6.60
2023-08-12T00:12:42.041Z,7.13
2023-08-12T00:15:11.898Z,6.63
2023-08-12T00:17:42.971Z,6.43
2023-08-12T00:20:13.766Z,6.07
2023-08-12T00:22:46.459Z,5.60
2023-08-12T00:25:15.052Z,6.07
2023-08-12T00:27:43.403Z,5.80
2023-08-12T00:30:12.251Z,5.50
2023-08-12T00:32:42.191Z,5.57
2023-08-12T00:35:10.947Z,5.40
2023-08-12T00:37:39.142Z,5.10
2023-08-12T00:40:10.397Z,5.33
2023-08-12T00:42:38.636Z,5.07
2023-08-12T00:45:12.444Z,5.43
2023-08-12T00:47:40.864Z,5.67
2023-08-12T00:50:11.324Z,5.77
2023-08-12T00:52:39.981Z,5.50
2023-08-12T00:55:10.378Z,4.37
2023-08-12T00:57:38.767Z,5.03
2023-08-12T01:00:09.283Z,4.83
2023-08-12T01:02:37.810Z,4.80
2023-08-12T01:05:06.886Z,5.27
2023-08-12T01:07:35.538Z,5.53
2023-08-12T01:10:03.978Z,5.27
2023-08-12T01:12:39.050Z,5.23
2023-08-12T01:15:11.522Z,5.50
2023-08-12T01:17:43.690Z,5.50
2023-08-12T01:20:14.145Z,6.20
2023-08-12T01:22:44.230Z,6.13
2023-08-12T01:25:14.220Z,5.90
2023-08-12T01:27:42.513Z,6.60
2023-08-12T01:30:12.208Z,6.60
2023-08-12T01:32:45.428Z,6.10
2023-08-12T01:35:19.718Z,6.40
2023-08-12T01:37:48.873Z,6.13
2023-08-12T01:40:20.551Z,5.83
2023-08-12T01:42:50.326Z,5.97
2023-08-12T01:45:20.486Z,6.27
2023-08-12T01:47:52.329Z,6.20
2023-08-12T01:50:22.822Z,6.57
2023-08-12T01:52:51.101Z,6.87
2023-08-12T01:55:21.184Z,6.77
2023-08-12T01:57:49.382Z,6.13
2023-08-12T02:00:18.473Z,7.00
2023-08-12T02:02:48.370Z,6.90
2023-08-12T02:05:17.063Z,7.47
2023-08-12T02:07:46.560Z,6.17
2023-08-12T02:10:16.334Z,6.43
2023-08-12T02:12:45.907Z,6.83
2023-08-12T02:15:14.333Z,6.97
2023-08-12T02:17:42.694Z,6.70
2023-08-12T02:20:11.785Z,6.73
2023-08-12T02:22:40.350Z,6.83
2023-08-12T02:25:09.882Z,6.93
2023-08-12T02:27:38.101Z,6.77
2023-08-12T02:30:09.163Z,7.23
2023-08-12T02:32:37.552Z,6.77
2023-08-12T02:35:06.165Z,6.87
2023-08-12T02:37:34.455Z,6.63
2023-08-12T02:40:05.857Z,7.27
2023-08-12T02:42:34.220Z,7.27
2023-08-12T02:45:02.666Z,7.83
2023-08-12T02:47:32.353Z,7.93
2023-08-12T02:50:00.540Z,7.43
2023-08-12T02:52:29.030Z,7.47
2023-08-12T02:54:57.539Z,8.47
2023-08-12T02:57:25.798Z,8.97
2023-08-12T02:59:54.279Z,8.67
2023-08-12T03:02:22.625Z,9.40
2023-08-12T03:04:52.353Z,9.23
2023-08-12T03:07:20.629Z,9.00
2023-08-12T03:09:49.043Z,9.07
2023-08-12T03:12:17.250Z,8.50
2023-08-12T03:14:45.653Z,8.80
2023-08-12T03:17:14.254Z,8.00
2023-08-12T03:19:42.652Z,8.77
2023-08-12T03:22:12.375Z,8.60
2023-08-12T03:24:40.782Z,7.93
2023-08-12T03:27:09.106Z,8.63
2023-08-12T03:29:37.464Z,8.67
2023-08-12T03:32:06.270Z,8.73
2023-08-12T03:34:34.626Z,9.03
2023-08-12T03:37:02.834Z,8.33
2023-08-12T03:39:32.807Z,8.63
2023-08-12T03:42:01.030Z,8.60
2023-08-12T03:44:29.370Z,8.70
2023-08-12T03:46:57.674Z,9.27
2023-08-12T03:49:25.927Z,9.07
2023-08-12T03:51:54.269Z,8.87
2023-08-12T03:54:22.648Z,9.33
2023-08-12T03:56:52.358Z,8.77
2023-08-12T03:59:20.816Z,9.07
2023-08-12T04:01:49.206Z,8.40
2023-08-12T04:04:17.464Z,8.47
2023-08-12T04:06:45.771Z,7.23
2023-08-12T04:09:14.063Z,6.90
2023-08-12T04:11:43.022Z,6.63
2023-08-12T04:14:12.608Z,6.10
2023-08-12T04:16:41.473Z,5.63
2023-08-12T04:19:10.014Z,5.30
2023-08-12T04:21:38.397Z,4.43
2023-08-12T04:24:07.372Z,3.93
2023-08-12T04:26:35.619Z,3.50
2023-08-12T04:29:03.957Z,3.00
2023-08-12T04:31:33.897Z,3.00
2023-08-12T04:34:02.209Z,3.00
2023-08-12T04:36:30.474Z,2.43
2023-08-12T04:38:58.877Z,2.50
2023-08-12T04:41:27.114Z,2.60
2023-08-12T04:43:55.623Z,3.20
2023-08-12T04:46:24.365Z,2.43
2023-08-12T04:48:54.047Z,2.40
2023-08-12T04:51:22.302Z,2.73
2023-08-12T04:53:50.825Z,2.63
2023-08-12T04:56:19.379Z,2.87
2023-08-12T04:58:47.563Z,2.70
2023-08-12T05:01:16.013Z,2.70
2023-08-12T05:03:44.307Z,3.00
2023-08-12T05:06:13.810Z,3.30
2023-08-12T05:08:42.103Z,3.50
2023-08-12T05:11:10.379Z,3.30
2023-08-12T05:13:38.563Z,3.53
2023-08-12T05:16:07.222Z,3.87
2023-08-12T05:18:35.487Z,4.20
2023-08-12T05:21:04.205Z,4.07
2023-08-12T05:23:34.052Z,4.90
2023-08-12T05:26:02.249Z,4.93
2023-08-12T05:28:30.467Z,5.73
2023-08-12T05:30:58.893Z,6.17
2023-08-12T05:33:27.225Z,6.77
2023-08-12T05:35:55.912Z,6.20
2023-08-12T05:38:24.552Z,6.23
2023-08-12T05:40:54.131Z,6.87
2023-08-12T05:43:22.359Z,7.20
2023-08-12T05:45:51.071Z,6.80
2023-08-12T05:48:19.342Z,6.70
2023-08-12T05:50:47.580Z,7.07
2023-08-12T05:53:16.144Z,7.00
2023-08-12T05:55:44.417Z,6.97
2023-08-12T05:58:13.973Z,6.57
2023-08-12T06:00:46.556Z,7.20
2023-08-12T06:03:15.556Z,7.60
2023-08-12T06:05:47.081Z,7.23
2023-08-12T06:08:15.718Z,7.50
2023-08-12T06:10:44.239Z,9.67
2023-08-12T06:13:13.891Z,10.17
2023-08-12T06:15:42.409Z,9.37
2023-08-12T06:18:11.321Z,8.60
2023-08-12T06:20:39.685Z,5.30
2023-08-12T06:23:07.975Z,4.00
2023-08-12T06:25:37.499Z,4.00
2023-08-12T06:28:06.379Z,4.43
2023-08-12T06:30:36.033Z,6.23
2023-08-12T06:33:04.584Z,6.60
2023-08-12T06:35:32.855Z,7.63
2023-08-12T06:38:01.793Z,7.00
2023-08-12T06:40:31.966Z,7.23
2023-08-12T06:43:00.186Z,7.40
2023-08-12T06:45:28.619Z,7.37
2023-08-12T06:47:58.509Z,7.97
2023-08-12T06:50:26.888Z,8.43
2023-08-12T06:52:55.259Z,8.90
2023-08-12T06:55:23.728Z,7.70
2023-08-12T06:57:51.991Z,10.00
2023-08-12T07:00:20.204Z,8.60
2023-08-12T07:02:48.538Z,9.30
2023-08-12T07:05:18.422Z,10.10
2023-08-12T07:07:46.589Z,11.60
2023-08-12T07:10:14.880Z,11.70
2023-08-12T07:12:43.107Z,12.13
2023-08-12T07:15:13.120Z,12.17
2023-08-12T07:17:42.027Z,12.33
2023-08-12T07:20:10.865Z,12.23
2023-08-12T07:22:40.731Z,11.47
2023-08-12T07:25:09.731Z,10.93
2023-08-12T07:27:37.976Z,9.90
2023-08-12T07:30:07.369Z,9.13
2023-08-12T07:32:35.669Z,8.03
2023-08-12T07:35:03.932Z,8.77
2023-08-12T07:37:32.232Z,8.30
2023-08-12T07:40:02.001Z,8.03
2023-08-12T07:42:30.321Z,7.60
2023-08-12T07:44:58.615Z,5.67
2023-08-12T07:47:27.189Z,5.93
2023-08-12T07:49:55.418Z,4.60
2023-08-12T07:52:23.699Z,4.93
2023-08-12T07:54:52.051Z,4.70
2023-08-12T07:57:25.299Z,3.63
2023-08-12T07:59:53.785Z,3.23
2023-08-12T08:02:22.068Z,3.40
2023-08-12T08:04:50.502Z,3.20
2023-08-12T08:07:19.081Z,2.60
2023-08-12T08:09:47.308Z,2.73
2023-08-12T08:12:15.820Z,2.70
2023-08-12T08:14:45.660Z,2.50
2023-08-12T08:17:14.017Z,2.43
2023-08-12T08:19:42.405Z,2.57
2023-08-12T08:22:11.159Z,2.60
2023-08-12T08:24:39.887Z,2.63
2023-08-12T08:27:08.589Z,2.80
2023-08-12T08:29:37.027Z,2.33
2023-08-12T08:32:07.274Z,2.50
2023-08-12T08:34:35.738Z,2.40
2023-08-12T08:37:04.066Z,1.93
2023-08-12T08:39:32.732Z,2.17
2023-08-12T08:42:01.626Z,2.57
2023-08-12T08:44:32.735Z,2.50
2023-08-12T08:47:01.588Z,2.73
2023-08-12T08:49:33.081Z,2.20
2023-08-12T08:52:02.594Z,2.30
2023-08-12T08:54:30.946Z,2.20
2023-08-12T08:57:04.011Z,2.27
2023-08-12T08:59:37.086Z,2.10
2023-08-12T09:02:06.824Z,2.10
2023-08-12T09:04:37.163Z,2.20
2023-08-12T09:07:06.301Z,2.30
2023-08-12T09:09:36.453Z,2.30
2023-08-12T09:12:07.357Z,1.77
2023-08-12T09:14:36.525Z,2.20
2023-08-12T09:17:05.255Z,2.03
2023-08-12T09:19:33.495Z,2.20
2023-08-12T09:22:05.629Z,2.20
2023-08-12T09:24:34.149Z,2.00
2023-08-12T09:27:03.014Z,1.87
2023-08-12T09:29:32.705Z,1.77
2023-08-12T09:32:14.479Z,1.70
2023-08-12T09:34:49.844Z,1.90
2023-08-12T09:37:20.633Z,1.60
2023-08-12T09:39:49.892Z,1.90
2023-08-12T09:42:18.603Z,1.60
2023-08-12T09:44:47.691Z,2.00
2023-08-12T09:47:16.024Z,1.92
2023-08-12T09:49:44.220Z,1.60
2023-08-12T09:52:12.931Z,1.90
2023-08-12T09:54:44.868Z,1.80
2023-08-12T09:57:15.782Z,1.97
2023-08-12T09:59:45.445Z,1.50
2023-08-12T10:02:19.846Z,2.00
2023-08-12T10:04:51.945Z,1.80
2023-08-12T10:07:21.388Z,1.60
2023-08-12T10:09:51.550Z,1.93
2023-08-12T10:12:20.782Z,1.70
2023-08-12T10:14:50.744Z,1.50
2023-08-12T10:17:37.018Z,1.60
2023-08-12T10:20:10.182Z,1.52
2023-08-12T10:22:41.165Z,1.60
2023-08-12T10:25:11.690Z,1.75
2023-08-12T10:27:40.065Z,1.75
2023-08-12T10:30:10.463Z,1.60
2023-08-12T10:32:39.793Z,1.75
2023-08-12T10:35:09.546Z,1.80
2023-08-12T10:37:38.033Z,1.73
2023-08-12T10:40:08.603Z,1.70
2023-08-12T10:42:45.347Z,1.92
2023-08-12T10:45:14.757Z,1.70
2023-08-12T10:47:50.457Z,1.63
2023-08-12T10:50:23.300Z,1.67
2023-08-12T10:52:55.326Z,1.73
2023-08-12T10:55:25.288Z,1.60
2023-08-12T10:57:57.596Z,1.55
2023-08-12T11:00:27.384Z,1.70
2023-08-12T11:02:57.392Z,1.65
2023-08-12T11:05:26.499Z,1.63
2023-08-12T11:07:59.917Z,1.70
2023-08-12T11:10:31.936Z,1.83
2023-08-12T11:13:04.466Z,1.83
2023-08-12T11:15:34.854Z,1.80
2023-08-12T11:18:05.683Z,1.90
2023-08-12T11:20:34.509Z,1.65
2023-08-12T11:23:03.204Z,1.58
2023-08-12T11:25:33.019Z,1.55
2023-08-12T11:28:06.670Z,1.83
2023-08-12T11:30:35.288Z,1.70
2023-08-12T11:33:05.054Z,1.80
2023-08-12T11:35:33.402Z,1.70
2023-08-12T11:38:04.618Z,2.10
2023-08-12T11:40:33.056Z,1.70
2023-08-12T11:43:01.278Z,2.00
2023-08-12T11:45:31.116Z,1.48
2023-08-12T11:47:59.625Z,1.67
2023-08-12T11:50:29.151Z,1.48
2023-08-12T11:52:59.938Z,1.60
2023-08-12T11:55:28.690Z,1.88
2023-08-12T11:57:57.028Z,1.52
2023-08-12T12:00:28.372Z,1.52
2023-08-12T12:02:59.121Z,1.35
2023-08-12T12:05:30.942Z,1.55
2023-08-12T12:08:00.771Z,1.77
2023-08-12T12:10:34.356Z,1.90
2023-08-12T12:13:06.810Z,1.70
2023-08-12T12:15:56.665Z,1.45
2023-08-12T12:18:28.093Z,1.48
2023-08-12T12:20:58.212Z,1.67
2023-08-12T12:23:31.585Z,1.67
2023-08-12T12:26:02.030Z,1.80
2023-08-12T12:28:30.815Z,1.73
2023-08-12T12:30:59.397Z,1.80
2023-08-12T12:33:31.537Z,1.42
2023-08-12T12:36:01.254Z,1.77
2023-08-12T12:38:31.578Z,1.80
2023-08-12T12:41:00.704Z,1.70
2023-08-12T12:43:28.934Z,1.77
2023-08-12T12:45:57.262Z,1.87
2023-08-12T12:48:25.855Z,2.07
2023-08-12T12:50:55.459Z,1.70
2023-08-12T12:53:23.763Z,1.90
2023-08-12T12:55:52.863Z,1.60
2023-08-12T12:58:23.558Z,1.97
2023-08-12T13:00:51.920Z,1.70
2023-08-12T13:03:20.564Z,1.90
2023-08-12T13:05:48.919Z,1.70
2023-08-12T13:08:18.655Z,1.80
2023-08-12T13:10:47.474Z,1.90
2023-08-12T13:13:16.918Z,1.83
2023-08-12T13:15:45.328Z,1.77
2023-08-12T13:18:14.288Z,1.70
2023-08-12T13:20:42.513Z,1.77
2023-08-12T13:23:10.754Z,1.90
2023-08-12T13:25:41.105Z,2.13
2023-08-12T13:28:09.541Z,1.57
2023-08-12T13:30:39.266Z,2.20
2023-08-12T13:33:07.848Z,2.30
2023-08-12T13:35:36.069Z,1.83
2023-08-12T13:38:04.560Z,2.00
2023-08-12T13:40:33.290Z,2.30
2023-08-12T13:43:03.126Z,1.70
2023-08-12T13:45:31.361Z,2.27
2023-08-12T13:47:59.800Z,2.43
2023-08-12T13:50:28.823Z,1.80
2023-08-12T13:52:57.027Z,2.23
2023-08-12T13:55:25.615Z,1.90
2023-08-12T13:57:54.492Z,2.10
2023-08-12T14:00:25.792Z,1.90
2023-08-12T14:02:55.234Z,2.10
2023-08-12T14:05:23.723Z,2.00
2023-08-12T14:07:52.020Z,1.73
2023-08-12T14:10:20.560Z,1.97
2023-08-12T14:12:51.976Z,1.83
2023-08-12T14:15:21.455Z,1.90
2023-08-12T14:18:09.792Z,1.80
2023-08-12T14:20:38.120Z,1.80
2023-08-12T14:23:06.591Z,2.10
2023-08-12T14:25:34.783Z,2.00
2023-08-12T14:28:04.116Z,2.20
2023-08-12T14:30:32.585Z,2.13
2023-08-12T14:33:01.106Z,2.00
2023-08-12T14:35:30.826Z,2.10
2023-08-12T14:37:59.070Z,1.90
2023-08-12T14:40:27.387Z,2.00
2023-08-12T14:42:55.818Z,2.13
2023-08-12T14:45:24.226Z,1.93
2023-08-12T14:47:52.556Z,2.30
2023-08-12T14:50:21.088Z,1.90
2023-08-12T14:52:50.726Z,2.00
2023-08-12T14:55:19.087Z,2.40
2023-08-12T14:57:47.446Z,2.10
2023-08-12T15:00:16.699Z,2.20
2023-08-12T15:02:45.012Z,1.80
2023-08-12T15:05:13.498Z,2.17
2023-08-12T15:07:41.870Z,2.17
2023-08-12T15:10:12.468Z,2.28
2023-08-12T15:12:41.469Z,2.33
2023-08-12T15:15:10.162Z,2.65
2023-08-12T15:17:38.396Z,2.33
2023-08-12T15:20:07.963Z,1.87
2023-08-12T15:22:36.250Z,2.10
2023-08-12T15:25:04.677Z,2.23
2023-08-12T15:27:34.672Z,2.10
2023-08-12T15:30:03.075Z,2.17
2023-08-12T15:32:32.332Z,1.83
2023-08-12T15:35:00.998Z,1.90
2023-08-12T15:37:29.988Z,2.03
2023-08-12T15:39:58.207Z,1.80
2023-08-12T15:42:26.659Z,2.00
2023-08-12T15:44:56.394Z,2.10
2023-08-12T15:47:24.630Z,2.00
2023-08-12T15:49:53.063Z,2.17
2023-08-12T15:52:21.501Z,2.00
2023-08-12T15:54:49.742Z,2.47
2023-08-12T15:57:18.215Z,2.27
2023-08-12T15:59:47.000Z,1.90
2023-08-12T16:02:17.135Z,2.20
2023-08-12T16:04:45.941Z,1.90
2023-08-12T16:07:14.230Z,2.23
2023-08-12T16:09:42.582Z,1.93
2023-08-12T16:12:11.466Z,1.90
2023-08-12T16:14:44.904Z,2.10
2023-08-12T16:17:13.367Z,1.87
2023-08-12T16:19:46.431Z,1.83
2023-08-12T16:22:15.503Z,2.00
2023-08-12T16:24:53.291Z,2.03
2023-08-12T16:27:24.756Z,1.90
2023-08-12T16:29:55.831Z,2.00
2023-08-12T16:32:24.134Z,2.00
2023-08-12T16:34:53.980Z,2.00
2023-08-12T16:37:22.411Z,2.10
2023-08-12T16:39:52.886Z,2.00
2023-08-12T16:42:23.045Z,2.20
2023-08-12T16:44:52.482Z,2.30
2023-08-12T16:47:20.775Z,2.10
2023-08-12T16:49:49.139Z,2.00
2023-08-12T16:52:18.950Z,1.93
2023-08-12T16:54:47.117Z,1.80
2023-08-12T16:57:15.514Z,1.80
2023-08-12T16:59:43.705Z,2.30
2023-08-12T17:02:12.316Z,1.73
2023-08-12T17:04:41.518Z,2.33
2023-08-12T17:07:09.846Z,2.03
2023-08-12T17:09:39.605Z,1.80
2023-08-12T17:12:09.673Z,2.00
2023-08-12T17:14:37.885Z,2.10
2023-08-12T17:17:06.207Z,1.87
2023-08-12T17:19:36.545Z,2.10
2023-08-12T17:22:05.223Z,2.07
2023-08-12T17:24:34.168Z,2.10
2023-08-12T17:27:03.967Z,2.10
2023-08-12T17:29:32.408Z,1.90
2023-08-12T17:32:00.638Z,2.13
2023-08-12T17:34:28.887Z,2.30
2023-08-12T17:36:57.258Z,2.40
2023-08-12T17:39:25.726Z,1.90
2023-08-12T17:41:54.242Z,2.53
2023-08-12T17:44:24.026Z,2.27
2023-08-12T17:46:52.276Z,2.03
2023-08-12T17:49:20.934Z,2.07
2023-08-12T17:51:49.105Z,2.00
2023-08-12T17:54:17.375Z,2.30
2023-08-12T17:56:45.657Z,2.03
2023-08-12T17:59:14.016Z,2.40
2023-08-12T18:01:43.612Z,2.23
2023-08-12T18:04:11.964Z,2.60
2023-08-12T18:06:40.540Z,2.27
2023-08-12T18:09:09.526Z,1.77
2023-08-12T18:11:38.078Z,2.10
2023-08-12T18:14:06.592Z,2.20
2023-08-12T18:16:35.646Z,2.53
2023-08-12T18:19:05.781Z,2.90
2023-08-12T18:21:33.982Z,2.03
2023-08-12T18:24:02.316Z,2.30
2023-08-12T18:26:30.802Z,2.30
2023-08-12T18:28:59.078Z,2.10
2023-08-12T18:31:27.340Z,2.00
2023-08-12T18:33:55.768Z,2.10
2023-08-12T18:36:25.381Z,2.00
2023-08-12T18:38:53.658Z,2.23
2023-08-12T18:41:22.020Z,1.97
2023-08-12T18:43:50.240Z,1.97
2023-08-12T18:46:18.508Z,2.20
2023-08-12T18:48:46.827Z,1.73
2023-08-12T18:51:15.166Z,2.07
2023-08-12T18:53:45.133Z,2.13
2023-08-12T18:56:13.622Z,2.20
2023-08-12T18:58:41.900Z,1.90
2023-08-12T19:01:10.248Z,2.00
2023-08-12T19:03:38.895Z,1.80
2023-08-12T19:06:07.166Z,2.50
2023-08-12T19:08:35.464Z,1.77
2023-08-12T19:11:05.776Z,2.27
2023-08-12T19:13:34.946Z,1.70
2023-08-12T19:16:03.358Z,1.90
2023-08-12T19:18:31.744Z,1.80
2023-08-12T19:21:00.105Z,2.23
2023-08-12T19:23:28.365Z,1.70
2023-08-12T19:25:56.742Z,2.40
2023-08-12T19:28:26.745Z,2.00
2023-08-12T19:30:54.976Z,1.93
2023-08-12T19:33:23.408Z,1.83
2023-08-12T19:35:51.606Z,2.00
2023-08-12T19:38:19.933Z,1.80
2023-08-12T19:40:48.384Z,2.40
2023-08-12T19:43:16.703Z,2.20
2023-08-12T19:45:46.358Z,2.30
2023-08-12T19:48:14.668Z,1.97
2023-08-12T19:50:44.153Z,2.37
2023-08-12T19:53:12.563Z,2.20
2023-08-12T19:55:41.021Z,2.40
2023-08-12T19:58:11.376Z,2.00
2023-08-12T20:00:39.758Z,2.07
2023-08-12T20:03:09.982Z,2.17
2023-08-12T20:05:38.263Z,2.60
2023-08-12T20:08:07.358Z,2.70
2023-08-12T20:10:36.150Z,2.23
2023-08-12T20:13:04.622Z,2.40
2023-08-12T20:15:33.183Z,2.43
2023-08-12T20:18:01.614Z,2.40
2023-08-12T20:20:32.334Z,2.50
2023-08-12T20:23:05.917Z,2.63
2023-08-12T20:25:37.888Z,2.37
2023-08-12T20:28:06.799Z,2.40
2023-08-12T20:30:35.299Z,2.50
2023-08-12T20:33:04.836Z,2.27
2023-08-12T20:35:34.620Z,2.20
2023-08-12T20:38:03.046Z,2.40
2023-08-12T20:40:31.410Z,2.60
2023-08-12T20:43:00.188Z,2.40
2023-08-12T20:45:28.597Z,2.40
2023-08-12T20:47:56.931Z,2.57
2023-08-12T20:50:25.296Z,2.60
2023-08-12T20:52:57.602Z,2.27
2023-08-12T20:55:25.876Z,2.60
2023-08-12T20:57:54.324Z,2.60
2023-08-12T21:00:22.979Z,2.30
2023-08-12T21:02:51.370Z,2.57
2023-08-12T21:05:20.810Z,2.50
2023-08-12T21:07:49.061Z,2.53
2023-08-12T21:10:18.866Z,2.63
2023-08-12T21:12:47.302Z,2.70
2023-08-12T21:15:15.626Z,2.53
2023-08-12T21:17:43.892Z,2.93
2023-08-12T21:20:13.058Z,2.63
2023-08-12T21:22:42.177Z,2.67
2023-08-12T21:25:11.009Z,3.30
2023-08-12T21:27:40.857Z,2.73
2023-08-12T21:30:10.030Z,2.57
2023-08-12T21:32:38.258Z,2.70
2023-08-12T21:35:07.485Z,2.97
2023-08-12T21:37:35.686Z,2.23
2023-08-12T21:40:03.971Z,2.53
2023-08-12T21:42:32.352Z,2.77
2023-08-12T21:45:02.009Z,3.03
2023-08-12T21:47:30.367Z,3.27
2023-08-12T21:49:58.887Z,3.03
2023-08-12T21:52:27.204Z,3.17
2023-08-12T21:54:55.468Z,2.73
2023-08-12T21:57:23.694Z,2.90
2023-08-12T21:59:52.012Z,2.60
2023-08-12T22:02:26.700Z,2.50
2023-08-12T22:04:55.446Z,2.87
2023-08-12T22:07:24.043Z,2.20
2023-08-12T22:09:52.755Z,3.00
2023-08-12T22:12:21.020Z,2.77
2023-08-12T22:14:49.306Z,2.97
2023-08-12T22:17:17.877Z,2.80
2023-08-12T22:19:48.910Z,2.27
2023-08-12T22:22:20.382Z,2.77
2023-08-12T22:24:49.255Z,3.03
2023-08-12T22:27:17.652Z,2.47
2023-08-12T22:29:45.920Z,2.60
2023-08-12T22:32:14.555Z,2.67
2023-08-12T22:34:43.035Z,2.70
2023-08-12T22:37:12.673Z,2.37
2023-08-12T22:39:41.972Z,2.30
2023-08-12T22:42:10.244Z,2.53
2023-08-12T22:44:38.610Z,2.70
2023-08-12T22:47:07.594Z,3.07
2023-08-12T22:49:35.802Z,2.37
2023-08-12T22:52:04.110Z,2.70
2023-08-12T22:54:33.976Z,2.33
2023-08-12T22:57:02.435Z,3.07
2023-08-12T22:59:30.579Z,2.60
2023-08-12T23:01:59.026Z,2.77
2023-08-12T23:04:27.301Z,2.70
2023-08-12T23:06:55.556Z,2.17
2023-08-12T23:09:23.881Z,2.50
2023-08-12T23:11:53.477Z,2.30
2023-08-12T23:14:21.673Z,2.77
2023-08-12T23:16:50.152Z,2.97
2023-08-12T23:19:18.544Z,2.80
2023-08-12T23:21:46.836Z,3.00
2023-08-12T23:24:15.148Z,2.70
2023-08-12T23:26:43.429Z,2.87
2023-08-12T23:29:13.286Z,2.47
2023-08-12T23:31:41.617Z,2.67
2023-08-12T23:34:10.000Z,2.77
2023-08-12T23:36:38.267Z,2.40
2023-08-12T23:39:07.054Z,2.93
2023-08-12T23:41:35.497Z,2.60
2023-08-12T23:44:03.763Z,2.90
2023-08-12T23:46:33.433Z,2.50
2023-08-12T23:49:01.922Z,2.83
2023-08-12T23:51:30.106Z,2.60
2023-08-12T23:53:58.384Z,2.70
2023-08-12T23:56:26.721Z,3.27
2023-08-12T23:58:54.885Z,3.17
